Архив погоды в Антипаюте

Метеограмма Антипаюта
Вторник, 17 Июля
Время местн. Темп Ветер Видим Явления Облачность нижн/средн/верх Атм. давл. Влжн Точка росы ВНГО R Сост. почвы Tg s
Напр Скр Прв ур.ст ур.м изм
14:00 +17.1° З,Ю-З 9 14 20 км - облачно с прояснениями 754 755 +0.3 84% +14.3° - - - - -
11:00 +20.3° З 9 12 20 км - переменная облачность 754 754 -0.5 77% +16.1° - - - - -
08:00 +22.3° Ю 5 - 20 км - переменная облачность 754 755 -1.3 65% +15.5° более 2.5 км 0 Влажная (без луж) - -
05:00 +18.2° Ю 4 - 20 км - облачно с прояснениями 756 756 -1.4 75% +13.8° - - - - -
02:00 +17.6° Ю 4 - 20 км - облачно с прояснениями 757 757 -1 78% +13.8° более 2.5 км - - - -
Понедельник, 16 Июля
Время местн. Темп Ветер Видим Явления Облачность нижн/средн/верх Атм. давл. Влжн Точка росы ВНГО R Сост. почвы Tg s
Напр Скр Прв ур.ст ур.м изм
23:00 +18.8° Ю 3 - 20 км - переменная облачность 758 758 -1.1 80% +15.3° - - - - -
20:00 +22.1° Ю,Ю-В 2 - 20 км - переменная облачность 759 759 -1 69% +16.2° более 2.5 км 0 - - -
17:00 +23.7° Ю 3 - 20 км - облачно с прояснениями 760 760 -0.6 51% +13.1° - - - - -
14:00 +25.1° З 3 - 20 км - переменная облачность 761 761 -0.5 51% +14.2° более 2.5 км - - - -
11:00 +23° З,Ю-З 3 - 20 км - ясно 761 762 -0.6 62% +15.4° более 2.5 км - - - -
08:00 +21.2° Ю 2 - 20 км - ясно 762 762 -0.3 69% +15.3° более 2.5 км 0 Влажная (без луж) - -
05:00 +17.2° Ю 2 - 20 км - ясно 762 762 -0.2 83% +14.2° более 2.5 км - - - -
02:00 +14.4° Ю 2 - 20 км - ясно 762 763 -0.3 92% +13.1° более 2.5 км - - - -
Воскресенье, 15 Июля
Время местн. Темп Ветер Видим Явления Облачность нижн/средн/верх Атм. давл. Влжн Точка росы ВНГО R Сост. почвы Tg s
Напр Скр Прв ур.ст ур.м изм
23:00 +16° Ю-В 2 - 20 км - ясно 763 763 -0.4 87% +13.8° более 2.5 км - - - -
20:00 +19.9° Ю 2 - 20 км - переменная облачность 763 763 -0.7 64% +13° более 2.5 км 0 - - -
17:00 +22° С 1 - 20 км - преимущественно облачно 764 764 -0.4 45% +9.4° более 2.5 км - - - -
14:00 +21.9° З 3 - 20 км - преимущественно облачно 764 764 -0.3 44% +9° более 2.5 км - - - -
11:00 +19.3° Ю-З 4 - 20 км - переменная облачность 764 765 -0.5 70% +13.8° более 2.5 км - - - -
08:00 +18.1° Ю-З 3 - 20 км - облачно с прояснениями 765 765 0 67% +11.9° более 2.5 км 0 Влажная (без луж) - -
05:00 +15.2° Ю-З 2 - 20 км - переменная облачность 765 765 +0.3 89% +13.4° более 2.5 км - - - -
02:00 +12.1° З,Ю-З 2 - 20 км - переменная облачность 765 765 +0.1 98% +11.8° более 2.5 км - - - -
Суббота, 14 Июля
Время местн. Темп Ветер Видим Явления Облачность нижн/средн/верх Атм. давл. Влжн Точка росы ВНГО R Сост. почвы Tg s
Напр Скр Прв ур.ст ур.м изм
23:00 +12.1° З 2 - 20 км - переменная облачность 764 765 0 92% +10.9° более 2.5 км - - - -
20:00 +16.2° З 4 - 20 км - переменная облачность 764 765 -0.1 73% +11.3° более 2.5 км 0 - - -
17:00 +17.4° З,Ю-З 6 - 20 км - ясно 765 765 -0.1 66% +11.1° более 2.5 км - - - -
14:00 +16.6° З,Ю-З 7 - 20 км - ясно 765 765 -0.2 60% +8.8° более 2.5 км - - - -
11:00 +16.1° З,Ю-З 7 - 20 км - переменная облачность 765 765 -0.5 66% +9.7° - - - - -